Hauptseite
METAR-TAF:

METAR-TAF

Flughäfen :

Kangiqsualujjuaq, Québec, Kanada

Breite: 58-43N, Länge: 065-59W, Höhe: 60 m

Beobachtung

Neuester Wetterbericht von vor 4 Stunden und 28 Minuten, um 22:00 UTC
Wind 14 kt aus Südost
Temperatur -9°C
Luftfeuchtigkeit 79%
Luftdruck 1001 hPa
Sichtweite: 4.8 km
Durchbrochene Bewölkung in der Höhe von 1700 ft
Geschlossene Wolkendecke in der Höhe von 5000 ft
Schnee leicht

METAR: CYLU 172200Z 13014KT 3SM -SN BKN017 OVC050 M09/M12 A2957 RMK SN3SC3SC2 LAST STFD OBS/NEXT 181300UTC SNW CVR/MUCH LOOSE SLP021

Zeit: 21:28 (02:28 UTC)


TAF: fehlend

Wetterbeobachtungen und Prognosen von mehr als 4000 Flughäfen (METAR und TAF Bericht).

Die verfügbaren Stationen werden durch gelbe und rote Markierungen auf der Karte dargestellt.

Führen Sie die Maus auf sie, um den Namen der Station zu sehen.

Darauf klicken, um die Beobachtung von Wetterbeobachtungen und Prognosen zu sehen.

Um die Karte zu ändern : klicken Sie auf den grünen Tasten mit einem schwarzen Kreuz Zum Vergrößern, auf den grünen Button mit einem Gedankenstrich zu verkleinern, oder auf die grünen Pfeile für benachbarte Karten.


METAR-TAF: